Time;durP1;ratioP1;P1;durP2;ratioP2;P2;SDS_P1;SDS_P2;PMS_P1;PMS_P2;Temp;Humidity;BMP_temperature;BMP_pressure;BME280_temperature;BME280_humidity;BME280_pressure;Samples;Min_cycle;Max_cycle;Signal;HPM_P1;HPM_P2
2023/08/22 00:02:04;;;;;;;8.07;2.03;;;20.20;99.90;;;;;;5270009;28;20232;-45
2023/08/22 00:04:35;;;;;;;5.60;2.40;;;20.10;99.90;;;;;;5271163;28;20178;-46
2023/08/22 00:07:05;;;;;;;2.20;1.80;;;20.10;99.90;;;;;;5271878;28;20489;-46
2023/08/22 00:09:36;;;;;;;3.50;1.83;;;20.00;99.90;;;;;;5267463;28;20252;-46
2023/08/22 00:12:07;;;;;;;3.60;1.60;;;20.00;99.90;;;;;;5270380;28;20218;-44
2023/08/22 00:14:38;;;;;;;2.20;1.47;;;19.90;99.90;;;;;;5269306;28;20186;-45
2023/08/22 00:17:10;;;;;;;3.60;1.90;;;19.80;99.90;;;;;;5265259;28;20470;-45
2023/08/22 00:19:41;;;;;;;2.20;1.20;;;19.70;99.90;;;;;;5266092;28;20205;-45
2023/08/22 00:22:12;;;;;;;5.60;2.17;;;19.70;99.90;;;;;;5264105;28;20533;-44
2023/08/22 00:24:42;;;;;;;2.37;1.87;;;19.80;99.90;;;;;;5272562;28;20182;-44
2023/08/22 00:27:13;;;;;;;4.30;2.33;;;19.70;99.90;;;;;;5265617;28;20182;-45
2023/08/22 00:29:44;;;;;;;2.00;1.87;;;19.70;99.90;;;;;;5271698;28;20200;-45
2023/08/22 00:32:14;;;;;;;2.30;1.90;;;19.70;99.90;;;;;;5267838;28;20689;-45
2023/08/22 00:34:45;;;;;;;5.00;2.93;;;19.70;99.90;;;;;;5264273;28;20190;-45
2023/08/22 00:37:16;;;;;;;2.43;2.30;;;19.60;99.90;;;;;;5268207;28;20256;-45
2023/08/22 00:39:47;;;;;;;4.93;2.20;;;19.60;99.90;;;;;;5267629;28;20181;-45
2023/08/22 00:42:18;;;;;;;1.90;1.80;;;19.60;99.90;;;;;;5263651;28;20245;-46
2023/08/22 00:44:49;;;;;;;8.33;2.10;;;19.50;99.90;;;;;;5269860;28;20216;-46
2023/08/22 00:47:20;;;;;;;2.07;1.87;;;19.50;99.90;;;;;;5268984;28;20431;-45
2023/08/22 00:49:51;;;;;;;3.13;2.27;;;19.50;99.90;;;;;;5266939;28;20188;-45
2023/08/22 00:52:22;;;;;;;8.23;2.20;;;19.50;99.90;;;;;;5267528;28;20468;-45
2023/08/22 00:54:53;;;;;;;6.43;1.97;;;19.40;99.90;;;;;;5275762;28;20420;-45
2023/08/22 00:57:23;;;;;;;3.47;2.60;;;19.40;99.90;;;;;;5271825;28;20197;-45
2023/08/22 00:59:57;;;;;;;12.73;2.50;;;19.40;99.90;;;;;;5268581;28;20245;-45
2023/08/22 01:02:28;;;;;;;5.23;1.93;;;19.40;99.90;;;;;;5272758;28;20280;-45
2023/08/22 01:04:58;;;;;;;3.30;2.10;;;19.40;99.90;;;;;;5269989;28;20477;-44
2023/08/22 01:07:38;;;;;;;6.00;2.30;;;19.30;99.90;;;;;;5271797;28;20182;-44
2023/08/22 01:10:25;;;;;;;5.17;2.10;;;19.30;99.90;;;;;;5273780;28;20213;-45
2023/08/22 01:13:20;;;;;;;2.20;1.50;;;19.30;99.90;;;;;;5267154;28;20450;-45
2023/08/22 01:15:52;;;;;;;2.07;1.80;;;19.30;99.90;;;;;;5272995;28;20477;-45
2023/08/22 01:18:26;;;;;;;4.20;1.80;;;19.30;99.90;;;;;;5271226;28;20434;-44
2023/08/22 01:21:06;;;;;;;2.17;2.00;;;19.40;99.90;;;;;;5256556;28;20459;-46
2023/08/22 01:23:37;;;;;;;4.10;1.97;;;19.40;99.90;;;;;;5271479;28;20450;-45
2023/08/22 01:26:07;;;;;;;3.30;2.17;;;19.50;99.90;;;;;;5276686;28;21440;-45
2023/08/22 01:28:55;;;;;;;2.10;1.73;;;19.50;99.90;;;;;;5274974;28;20198;-45
2023/08/22 01:31:36;;;;;;;1.73;1.63;;;19.50;99.90;;;;;;5268430;28;20213;-44
2023/08/22 01:34:21;;;;;;;4.73;1.40;;;19.60;99.90;;;;;;5276309;28;20444;-46
2023/08/22 01:36:56;;;;;;;3.37;1.73;;;19.60;99.90;;;;;;5271911;28;21015;-45
2023/08/22 01:39:28;;;;;;;2.90;1.93;;;19.60;99.90;;;;;;5270944;28;20434;-46
2023/08/22 01:41:59;;;;;;;4.53;1.80;;;19.60;99.90;;;;;;5271289;28;20508;-44
2023/08/22 01:44:30;;;;;;;1.90;1.70;;;19.60;99.90;;;;;;5273565;28;20493;-45
2023/08/22 01:47:01;;;;;;;1.50;1.27;;;19.60;99.90;;;;;;5270212;28;20441;-45
2023/08/22 01:49:35;;;;;;;11.63;2.27;;;19.60;99.90;;;;;;5275549;28;20240;-45
2023/08/22 01:52:06;;;;;;;5.33;1.77;;;19.60;99.90;;;;;;5272558;28;20501;-47
2023/08/22 01:54:38;;;;;;;8.13;2.20;;;19.70;99.90;;;;;;5271011;28;20429;-46
2023/08/22 01:57:09;;;;;;;2.10;1.43;;;19.70;99.90;;;;;;5272341;28;20223;-46
2023/08/22 01:59:40;;;;;;;2.93;1.50;;;19.70;99.90;;;;;;5265339;28;20729;-46
2023/08/22 02:02:11;;;;;;;4.20;1.37;;;19.70;99.90;;;;;;5270322;28;20198;-44
2023/08/22 02:04:41;;;;;;;2.53;1.60;;;19.70;99.90;;;;;;5269332;28;20924;-45
2023/08/22 02:07:12;;;;;;;3.80;2.20;;;19.70;99.90;;;;;;5265229;28;20189;-45
2023/08/22 02:09:43;;;;;;;4.93;2.60;;;19.70;99.90;;;;;;5269508;28;20546;-45
2023/08/22 02:12:13;;;;;;;4.23;2.13;;;19.70;99.90;;;;;;5267316;28;20570;-45
2023/08/22 02:14:44;;;;;;;1.77;1.40;;;19.60;99.90;;;;;;5268071;28;20185;-45
2023/08/22 02:17:15;;;;;;;6.33;2.17;;;19.60;99.90;;;;;;5264162;28;20224;-46
2023/08/22 02:19:46;;;;;;;2.57;2.00;;;19.60;99.90;;;;;;5267605;28;20209;-45
2023/08/22 02:22:16;;;;;;;4.60;1.73;;;19.50;99.90;;;;;;5269003;28;20197;-46
2023/08/22 02:24:47;;;;;;;2.77;2.10;;;19.50;99.90;;;;;;5271049;28;20182;-46
2023/08/22 02:27:18;;;;;;;2.23;1.87;;;19.50;99.90;;;;;;5235887;28;20177;-46
2023/08/22 02:29:49;;;;;;;3.83;1.90;;;19.50;99.90;;;;;;5263410;28;20208;-47
2023/08/22 02:32:19;;;;;;;7.70;1.83;;;19.60;99.90;;;;;;5269661;28;20197;-44
2023/08/22 02:34:50;;;;;;;7.63;2.47;;;19.60;99.90;;;;;;5270218;28;20860;-47
2023/08/22 02:37:21;;;;;;;9.13;2.47;;;19.50;99.90;;;;;;5267061;28;20194;-46
2023/08/22 02:39:53;;;;;;;8.30;2.40;;;19.50;99.90;;;;;;5271883;28;20174;-46
2023/08/22 02:42:23;;;;;;;5.80;2.50;;;19.40;99.90;;;;;;5263607;28;20197;-45
2023/08/22 02:44:54;;;;;;;3.77;1.87;;;19.50;99.90;;;;;;5271355;28;20435;-44
2023/08/22 02:47:25;;;;;;;3.53;1.67;;;19.40;99.90;;;;;;5272665;28;20182;-45
2023/08/22 02:49:55;;;;;;;3.30;1.37;;;19.50;99.90;;;;;;5267399;28;20299;-46
2023/08/22 02:52:26;;;;;;;3.43;1.40;;;19.70;99.90;;;;;;5273103;28;20189;-45
2023/08/22 02:54:57;;;;;;;4.37;2.03;;;19.50;99.90;;;;;;5267240;28;20261;-47
2023/08/22 02:57:27;;;;;;;2.50;2.10;;;19.60;99.90;;;;;;5267402;28;20205;-45
2023/08/22 02:59:58;;;;;;;2.17;2.00;;;19.60;99.90;;;;;;5266507;28;20185;-45
2023/08/22 03:02:29;;;;;;;5.57;1.60;;;19.50;99.90;;;;;;5268898;28;20194;-45
2023/08/22 03:04:59;;;;;;;3.33;1.93;;;19.60;99.90;;;;;;5263775;28;20286;-46
2023/08/22 03:07:30;;;;;;;10.10;1.50;;;19.60;99.90;;;;;;5270400;28;20622;-45
2023/08/22 03:10:01;;;;;;;2.70;2.00;;;19.60;99.90;;;;;;5264901;28;20173;-45
2023/08/22 03:12:31;;;;;;;1.90;1.80;;;19.70;99.90;;;;;;5261361;28;20214;-46
2023/08/22 03:15:03;;;;;;;1.60;1.50;;;19.70;99.90;;;;;;5264892;28;20182;-45
2023/08/22 03:17:34;;;;;;;3.33;1.87;;;19.70;99.90;;;;;;5265274;28;20205;-44
2023/08/22 03:20:05;;;;;;;14.20;2.20;;;19.60;99.90;;;;;;5269906;28;20440;-45
2023/08/22 03:22:35;;;;;;;3.70;1.87;;;19.70;99.90;;;;;;5267682;28;20186;-45
2023/08/22 03:25:06;;;;;;;5.07;1.90;;;19.70;99.90;;;;;;5268353;28;20515;-45
2023/08/22 03:27:37;;;;;;;5.00;1.60;;;19.70;99.90;;;;;;5263637;28;20185;-46
2023/08/22 03:30:08;;;;;;;7.10;2.13;;;19.70;99.90;;;;;;5266144;28;20185;-45
2023/08/22 03:32:39;;;;;;;6.17;1.93;;;19.70;99.90;;;;;;5266027;28;20193;-45
2023/08/22 03:35:10;;;;;;;1.87;1.77;;;19.70;99.90;;;;;;5266549;28;20443;-45
2023/08/22 03:37:41;;;;;;;6.83;2.20;;;19.70;99.90;;;;;;5264157;28;20284;-45
2023/08/22 03:40:13;;;;;;;2.20;1.80;;;19.70;99.90;;;;;;5270101;28;20169;-45
2023/08/22 03:42:45;;;;;;;2.70;1.80;;;19.70;99.90;;;;;;5266933;28;20198;-45
2023/08/22 03:45:15;;;;;;;4.40;1.47;;;19.80;99.90;;;;;;5267298;28;20517;-46
2023/08/22 03:47:46;;;;;;;3.13;1.97;;;19.80;99.90;;;;;;5267588;28;20474;-44
2023/08/22 03:50:17;;;;;;;3.30;1.83;;;19.80;99.90;;;;;;5264117;28;20189;-45
2023/08/22 03:52:47;;;;;;;2.90;1.67;;;19.80;99.90;;;;;;5262220;28;20246;-46
2023/08/22 03:55:18;;;;;;;4.77;1.90;;;19.80;99.90;;;;;;5260756;28;20235;-48
2023/08/22 03:57:49;;;;;;;2.00;1.70;;;19.80;99.90;;;;;;5267102;28;20209;-45
2023/08/22 04:00:19;;;;;;;6.43;1.60;;;19.80;99.90;;;;;;5268640;28;20200;-46
2023/08/22 04:02:57;;;;;;;2.33;1.77;;;19.80;99.90;;;;;;5258659;28;20203;-46
2023/08/22 04:05:27;;;;;;;5.30;1.87;;;19.70;99.90;;;;;;5265925;28;20181;-47
2023/08/22 04:07:58;;;;;;;10.50;2.00;;;19.70;99.90;;;;;;5261851;28;20525;-46
2023/08/22 04:10:29;;;;;;;5.10;1.90;;;19.70;99.90;;;;;;5268105;28;20170;-45
2023/08/22 04:13:01;;;;;;;1.03;1.03;;;19.70;99.90;;;;;;5268911;28;20287;-45
2023/08/22 04:15:35;;;;;;;2.03;1.90;;;19.60;99.90;;;;;;5266218;28;20176;-46
2023/08/22 04:18:06;;;;;;;6.13;2.00;;;19.60;99.90;;;;;;5270628;28;20803;-47
2023/08/22 04:20:37;;;;;;;1.90;1.43;;;19.60;99.90;;;;;;5261987;28;20917;-46
2023/08/22 04:23:07;;;;;;;1.60;1.30;;;19.70;99.90;;;;;;5267715;28;20459;-46
2023/08/22 04:25:38;;;;;;;2.90;1.50;;;19.70;99.90;;;;;;5265689;28;20611;-46
2023/08/22 04:28:09;;;;;;;2.10;1.63;;;19.70;99.90;;;;;;5271895;28;20178;-47
2023/08/22 04:30:41;;;;;;;3.70;1.73;;;19.70;99.90;;;;;;5254472;28;20182;-47
2023/08/22 04:33:11;;;;;;;1.77;1.67;;;19.70;99.90;;;;;;5265559;28;20182;-47
2023/08/22 04:35:42;;;;;;;4.33;2.20;;;19.70;99.90;;;;;;5266225;28;20458;-46
2023/08/22 04:38:13;;;;;;;1.90;1.67;;;19.70;99.90;;;;;;5265766;28;20219;-45
2023/08/22 04:40:43;;;;;;;23.43;2.00;;;19.80;99.90;;;;;;5270006;28;20179;-47
2023/08/22 04:43:14;;;;;;;3.03;1.37;;;19.80;99.90;;;;;;5269129;28;20184;-47
2023/08/22 04:45:45;;;;;;;1.50;1.40;;;19.90;99.90;;;;;;5273050;28;20585;-46
2023/08/22 04:48:15;;;;;;;1.60;1.40;;;19.90;99.90;;;;;;5270330;28;20182;-45
2023/08/22 04:50:47;;;;;;;2.03;1.57;;;20.00;99.90;;;;;;5270267;28;20542;-45
2023/08/22 04:53:18;;;;;;;1.63;1.10;;;20.00;99.90;;;;;;5261090;28;20190;-46
2023/08/22 04:55:49;;;;;;;1.60;1.50;;;20.00;99.90;;;;;;5269755;28;20928;-45
2023/08/22 04:58:19;;;;;;;3.97;1.70;;;20.10;99.90;;;;;;5274404;28;20205;-46
2023/08/22 05:00:50;;;;;;;1.63;1.53;;;20.10;99.90;;;;;;5265857;28;20673;-45
2023/08/22 05:03:21;;;;;;;5.20;1.50;;;20.10;99.90;;;;;;5271241;28;20181;-45
2023/08/22 05:05:52;;;;;;;3.60;1.70;;;20.10;99.90;;;;;;5270281;28;20180;-45
2023/08/22 05:08:22;;;;;;;11.13;2.50;;;20.10;99.90;;;;;;5267470;28;20432;-44
2023/08/22 05:10:53;;;;;;;1.83;1.53;;;20.10;99.90;;;;;;5272468;28;20206;-46
2023/08/22 05:13:24;;;;;;;3.07;1.27;;;20.10;99.90;;;;;;5253649;28;20558;-45
2023/08/22 05:15:54;;;;;;;4.63;1.50;;;20.20;99.90;;;;;;5272418;28;20208;-46
2023/08/22 05:18:25;;;;;;;4.73;1.83;;;20.30;99.90;;;;;;5271890;28;20189;-45
2023/08/22 05:20:56;;;;;;;19.90;2.07;;;20.40;99.90;;;;;;5279086;28;20215;-45
2023/08/22 05:23:26;;;;;;;3.07;1.53;;;20.50;99.90;;;;;;5269806;28;20169;-45
2023/08/22 05:25:57;;;;;;;4.87;1.60;;;20.50;99.90;;;;;;5272192;28;20237;-45
2023/08/22 05:28:28;;;;;;;2.50;1.33;;;20.50;99.90;;;;;;5269003;28;20177;-46
2023/08/22 05:30:58;;;;;;;6.80;1.50;;;20.50;99.90;;;;;;5274881;28;20255;-44
2023/08/22 05:33:29;;;;;;;1.50;1.30;;;20.50;99.90;;;;;;5269282;28;20600;-45
2023/08/22 05:36:00;;;;;;;2.70;1.50;;;20.70;99.90;;;;;;5269721;28;20193;-45
2023/08/22 05:38:32;;;;;;;2.30;1.43;;;20.80;99.90;;;;;;5270440;28;20174;-45
2023/08/22 05:41:02;;;;;;;4.40;1.80;;;20.90;99.90;;;;;;5272314;28;20467;-46
2023/08/22 05:43:33;;;;;;;5.17;1.97;;;20.90;99.90;;;;;;5272509;28;20412;-45
2023/08/22 05:46:04;;;;;;;10.23;1.60;;;20.90;99.90;;;;;;5269733;28;20658;-45
2023/08/22 05:48:34;;;;;;;3.07;1.43;;;20.90;99.90;;;;;;5267675;28;20686;-46
2023/08/22 05:51:05;;;;;;;2.40;1.90;;;21.00;99.90;;;;;;5265853;28;20198;-45
2023/08/22 05:53:36;;;;;;;5.83;1.60;;;21.20;99.90;;;;;;5270196;28;20204;-45
2023/08/22 05:56:07;;;;;;;6.10;1.40;;;21.50;99.90;;;;;;5270842;28;20443;-45
2023/08/22 05:58:38;;;;;;;2.67;1.30;;;22.30;99.90;;;;;;5267307;28;20190;-46
2023/08/22 06:01:13;;;;;;;1.43;1.33;;;22.50;99.90;;;;;;5268727;28;20608;-47
2023/08/22 06:03:43;;;;;;;7.70;1.60;;;22.10;99.90;;;;;;5266988;28;20185;-45
2023/08/22 06:06:15;;;;;;;5.50;1.27;;;21.90;99.90;;;;;;5268216;28;20444;-45
2023/08/22 06:08:46;;;;;;;9.93;1.73;;;21.80;99.90;;;;;;5262438;28;20693;-45
2023/08/22 06:11:16;;;;;;;3.20;1.80;;;21.60;99.90;;;;;;5268918;28;20594;-46
2023/08/22 06:13:47;;;;;;;13.37;2.40;;;21.50;99.90;;;;;;5269679;28;20557;-46
2023/08/22 06:16:18;;;;;;;5.47;1.70;;;21.30;99.90;;;;;;5264041;28;20271;-45
2023/08/22 06:18:48;;;;;;;4.27;1.43;;;21.10;99.90;;;;;;5266999;28;20251;-46
2023/08/22 06:21:20;;;;;;;1.30;1.10;;;21.10;99.90;;;;;;5264325;28;20247;-46
2023/08/22 06:23:51;;;;;;;7.50;1.73;;;21.10;99.90;;;;;;5267694;28;20181;-47
2023/08/22 06:26:22;;;;;;;2.37;1.87;;;21.20;99.90;;;;;;5260850;28;20432;-45
2023/08/22 06:28:53;;;;;;;3.97;2.20;;;21.20;99.90;;;;;;5270885;28;20189;-45
2023/08/22 06:31:24;;;;;;;8.23;1.30;;;21.50;99.90;;;;;;5268111;28;20443;-46
2023/08/22 06:33:54;;;;;;;3.40;1.23;;;21.90;99.90;;;;;;5267003;28;20435;-45
2023/08/22 06:36:25;;;;;;;4.43;1.73;;;22.60;99.90;;;;;;5267219;28;20240;-46
2023/08/22 06:38:56;;;;;;;1.33;1.23;;;23.20;99.90;;;;;;5264299;28;20200;-46
2023/08/22 06:41:27;;;;;;;3.33;2.00;;;23.20;99.50;;;;;;5267020;28;20197;-45
2023/08/22 06:43:58;;;;;;;3.50;1.67;;;23.10;99.70;;;;;;5266017;28;20188;-46
2023/08/22 06:46:28;;;;;;;1.80;1.70;;;22.80;99.70;;;;;;5267809;28;20427;-45
2023/08/22 06:48:59;;;;;;;3.57;1.37;;;22.40;99.40;;;;;;5266546;28;20216;-46
2023/08/22 06:51:31;;;;;;;4.50;1.90;;;22.20;99.90;;;;;;5266209;28;20206;-45
2023/08/22 06:54:02;;;;;;;1.50;1.40;;;22.10;99.90;;;;;;5263570;28;20238;-45
2023/08/22 06:56:33;;;;;;;3.20;1.63;;;22.30;99.90;;;;;;5264242;28;20451;-46
2023/08/22 06:59:03;;;;;;;2.37;1.33;;;23.10;99.70;;;;;;5269524;28;20189;-46
2023/08/22 07:01:34;;;;;;;8.67;1.60;;;23.60;98.00;;;;;;5264392;28;20205;-46
2023/08/22 07:04:05;;;;;;;5.63;1.70;;;23.30;97.50;;;;;;5268414;28;20205;-45
2023/08/22 07:06:36;;;;;;;12.23;1.80;;;23.00;98.20;;;;;;5268390;28;20188;-45
2023/08/22 07:09:06;;;;;;;4.40;1.73;;;22.70;98.50;;;;;;5267719;28;20188;-46
2023/08/22 07:11:37;;;;;;;3.03;1.63;;;22.60;98.40;;;;;;5265817;28;20962;-45
2023/08/22 07:14:08;;;;;;;1.40;1.30;;;22.60;98.70;;;;;;5268201;28;20759;-45
2023/08/22 07:16:39;;;;;;;4.20;1.87;;;22.60;98.60;;;;;;5270318;28;20225;-45
2023/08/22 07:19:09;;;;;;;2.00;1.30;;;22.50;97.70;;;;;;5267794;28;20855;-46
2023/08/22 07:21:40;;;;;;;3.73;1.73;;;22.50;97.90;;;;;;5269061;28;20202;-46
2023/08/22 07:24:11;;;;;;;1.10;1.00;;;22.50;97.80;;;;;;5265727;28;20212;-46
2023/08/22 07:26:41;;;;;;;6.10;1.83;;;22.50;97.60;;;;;;5249606;28;20177;-45
2023/08/22 07:29:12;;;;;;;2.47;1.63;;;22.50;97.70;;;;;;5269676;28;20166;-44
2023/08/22 07:31:43;;;;;;;1.13;1.13;;;22.50;97.70;;;;;;5268994;28;20239;-46
2023/08/22 07:34:14;;;;;;;8.03;1.60;;;22.50;97.70;;;;;;5262525;28;20197;-44
2023/08/22 07:36:44;;;;;;;2.57;1.20;;;22.50;98.00;;;;;;5266430;28;20546;-47
2023/08/22 07:39:15;;;;;;;4.53;0.90;;;22.40;97.30;;;;;;5266066;28;20178;-46
2023/08/22 07:41:46;;;;;;;6.03;1.50;;;22.20;96.70;;;;;;5271970;28;20227;-44
2023/08/22 07:44:17;;;;;;;10.83;1.57;;;22.10;97.40;;;;;;5265900;28;20184;-45
2023/08/22 07:46:48;;;;;;;6.43;2.03;;;22.00;97.50;;;;;;5269221;28;20181;-46
2023/08/22 07:49:19;;;;;;;6.57;2.20;;;21.90;97.60;;;;;;5269080;28;20647;-46
2023/08/22 07:51:56;;;;;;;5.00;1.67;;;22.00;98.00;;;;;;5267858;28;20458;-45
2023/08/22 07:54:28;;;;;;;18.43;1.33;;;22.10;97.40;;;;;;5269458;28;20181;-46
2023/08/22 07:56:58;;;;;;;6.00;1.30;;;22.20;96.80;;;;;;5264512;28;20463;-45
2023/08/22 07:59:29;;;;;;;12.90;1.43;;;22.30;96.30;;;;;;5263539;28;20489;-45
2023/08/22 08:02:00;;;;;;;4.00;1.20;;;22.50;96.10;;;;;;5267070;28;20193;-45
2023/08/22 08:04:31;;;;;;;6.93;1.37;;;22.80;96.00;;;;;;5265187;28;20185;-46
2023/08/22 08:07:01;;;;;;;2.80;1.73;;;22.90;95.70;;;;;;5267809;28;20185;-46
2023/08/22 08:09:34;;;;;;;6.10;1.27;;;23.00;95.10;;;;;;5264581;28;20428;-45
2023/08/22 08:12:05;;;;;;;4.13;1.17;;;23.20;95.10;;;;;;5268140;28;20232;-45
2023/08/22 08:14:36;;;;;;;2.33;1.60;;;23.50;94.30;;;;;;5269170;28;20433;-46
2023/08/22 08:17:06;;;;;;;10.63;2.13;;;23.50;93.90;;;;;;5269808;28;20791;-45
2023/08/22 08:19:37;;;;;;;2.53;1.63;;;23.30;93.90;;;;;;5268191;28;20178;-45
2023/08/22 08:22:08;;;;;;;1.23;1.10;;;23.00;94.20;;;;;;5265738;28;20202;-45
2023/08/22 08:24:39;;;;;;;1.67;1.20;;;22.70;94.40;;;;;;5270387;28;20545;-46
2023/08/22 08:27:09;;;;;;;3.17;1.53;;;22.70;94.80;;;;;;5267245;28;20177;-45
2023/08/22 08:29:40;;;;;;;2.10;1.50;;;22.70;94.80;;;;;;5264744;28;20213;-45
2023/08/22 08:32:11;;;;;;;6.37;1.80;;;23.00;94.70;;;;;;5271205;28;20198;-45
2023/08/22 08:34:42;;;;;;;5.07;1.50;;;23.20;94.50;;;;;;5269101;28;20198;-45
2023/08/22 08:37:12;;;;;;;8.20;1.83;;;23.40;93.90;;;;;;5261771;28;20194;-45
2023/08/22 08:39:43;;;;;;;5.17;1.47;;;23.70;93.30;;;;;;5270258;28;20201;-46
2023/08/22 08:42:14;;;;;;;2.10;1.40;;;23.70;92.90;;;;;;5269950;28;20194;-46
2023/08/22 08:44:45;;;;;;;2.20;1.60;;;23.70;93.10;;;;;;5269095;28;20204;-45
2023/08/22 08:47:16;;;;;;;5.10;2.00;;;23.70;93.00;;;;;;5270216;28;20435;-44
2023/08/22 08:49:47;;;;;;;11.43;1.97;;;23.70;93.20;;;;;;5269404;28;20190;-47
2023/08/22 08:52:18;;;;;;;4.80;1.97;;;23.60;93.10;;;;;;5267345;28;20811;-47
2023/08/22 08:54:48;;;;;;;1.90;1.27;;;23.60;93.30;;;;;;5263519;28;20285;-47
2023/08/22 08:57:19;;;;;;;1.60;1.50;;;23.60;93.30;;;;;;5263955;28;20582;-44
2023/08/22 08:59:50;;;;;;;4.30;1.67;;;23.80;93.30;;;;;;5266805;28;20181;-46
2023/08/22 09:02:21;;;;;;;3.43;1.70;;;23.70;92.90;;;;;;5268740;28;20201;-47
2023/08/22 09:04:52;;;;;;;1.70;1.60;;;23.60;93.30;;;;;;5267463;28;20185;-46
2023/08/22 09:07:23;;;;;;;9.70;1.57;;;23.60;93.60;;;;;;5265819;28;21007;-46
2023/08/22 09:09:55;;;;;;;8.43;2.10;;;23.80;93.00;;;;;;5264221;28;20194;-46
2023/08/22 09:12:33;;;;;;;19.67;2.40;;;24.40;92.70;;;;;;5267163;28;20515;-47
2023/08/22 09:15:09;;;;;;;9.40;1.63;;;25.00;91.90;;;;;;5268433;28;20543;-45
2023/08/22 09:17:41;;;;;;;3.60;1.40;;;25.30;90.90;;;;;;5267556;28;20448;-46
2023/08/22 09:20:12;;;;;;;3.53;2.20;;;25.40;90.40;;;;;;5272630;28;20540;-46
2023/08/22 09:22:43;;;;;;;3.17;1.73;;;25.60;89.80;;;;;;5270644;28;20474;-46
2023/08/22 09:25:14;;;;;;;4.40;1.90;;;26.10;88.30;;;;;;5266950;28;20428;-46
2023/08/22 09:27:52;;;;;;;6.27;1.53;;;25.90;87.00;;;;;;5253285;28;20261;-46
2023/08/22 09:30:24;;;;;;;3.07;1.37;;;25.90;86.60;;;;;;5269826;28;20439;-46
2023/08/22 09:32:59;;;;;;;3.30;1.73;;;26.00;87.90;;;;;;5271060;28;20456;-45
2023/08/22 09:35:32;;;;;;;7.20;1.20;;;26.30;84.70;;;;;;5272951;28;20423;-47
2023/08/22 09:38:07;;;;;;;4.20;1.67;;;26.10;84.50;;;;;;5271934;28;20463;-46
2023/08/22 09:40:55;;;;;;;1.90;1.20;;;26.10;84.50;;;;;;5269489;28;21019;-46
2023/08/22 09:43:28;;;;;;;3.70;1.50;;;26.00;83.10;;;;;;5269356;28;20451;-45
2023/08/22 09:46:00;;;;;;;3.70;1.70;;;25.60;84.30;;;;;;5266034;28;20523;-45
2023/08/22 09:48:35;;;;;;;1.37;1.10;;;25.60;85.30;;;;;;5269197;28;20431;-46
2023/08/22 09:51:09;;;;;;;5.53;1.10;;;25.90;85.20;;;;;;5267287;28;20456;-47
2023/08/22 09:53:40;;;;;;;3.27;1.30;;;26.30;83.30;;;;;;5271191;28;20476;-47
2023/08/22 09:56:12;;;;;;;1.63;1.40;;;26.40;82.00;;;;;;5271385;28;20458;-45
2023/08/22 09:58:43;;;;;;;1.77;1.67;;;26.00;82.10;;;;;;5268501;28;20423;-46
2023/08/22 10:01:16;;;;;;;4.23;1.60;;;25.50;82.50;;;;;;5270980;28;20443;-45
2023/08/22 10:03:50;;;;;;;7.20;1.10;;;25.40;83.80;;;;;;5247887;28;20428;-47
2023/08/22 10:06:33;;;;;;;4.97;1.20;;;25.40;82.10;;;;;;5270982;28;20427;-47
2023/08/22 10:09:10;;;;;;;1.73;1.50;;;25.40;82.90;;;;;;5270396;28;20429;-46
2023/08/22 10:11:59;;;;;;;4.40;1.57;;;25.30;82.90;;;;;;5270709;28;20439;-47
2023/08/22 10:14:32;;;;;;;3.17;2.10;;;25.20;83.20;;;;;;5254498;28;20542;-47
2023/08/22 10:17:03;;;;;;;2.33;1.33;;;25.30;83.00;;;;;;5269656;28;20551;-45
2023/08/22 10:19:37;;;;;;;1.50;1.40;;;25.40;83.20;;;;;;5274749;28;20439;-47
2023/08/22 10:22:10;;;;;;;3.93;1.57;;;25.60;83.20;;;;;;5269356;28;20466;-47
2023/08/22 10:24:41;;;;;;;8.47;1.87;;;25.90;82.20;;;;;;5267923;28;20432;-46
2023/08/22 10:27:16;;;;;;;4.83;2.70;;;26.40;80.20;;;;;;5270428;28;20568;-46
2023/08/22 10:30:13;;;;;;;2.40;2.03;;;26.60;78.40;;;;;;5266754;28;20512;-45
2023/08/22 10:33:03;;;;;;;5.93;1.67;;;26.30;79.20;;;;;;5269571;28;20432;-46
2023/08/22 10:35:34;;;;;;;1.60;1.50;;;26.30;79.00;;;;;;5263019;28;20429;-46
2023/08/22 10:38:05;;;;;;;5.20;1.30;;;26.40;77.10;;;;;;5266699;28;20463;-48
2023/08/22 10:40:36;;;;;;;17.33;2.23;;;26.40;78.50;;;;;;5268224;28;20173;-47
2023/08/22 10:43:10;;;;;;;2.40;1.17;;;26.40;78.50;;;;;;5272241;28;20196;-47
2023/08/22 10:45:41;;;;;;;1.90;1.80;;;26.70;78.30;;;;;;5270455;28;20215;-46
2023/08/22 10:48:13;;;;;;;4.87;1.93;;;26.30;78.70;;;;;;5266518;28;20459;-46
2023/08/22 10:50:45;;;;;;;1.83;1.40;;;26.30;80.80;;;;;;5269946;28;20426;-47
2023/08/22 10:53:21;;;;;;;2.13;1.20;;;26.30;80.80;;;;;;5267091;28;20725;-46
2023/08/22 10:55:54;;;;;;;4.00;2.10;;;26.60;81.00;;;;;;5271263;28;20439;-46
2023/08/22 10:58:36;;;;;;;4.30;2.20;;;26.80;80.10;;;;;;5251466;28;21084;-46
2023/08/22 11:01:15;;;;;;;3.13;1.70;;;26.80;80.30;;;;;;5269017;28;20452;-47
2023/08/22 11:03:46;;;;;;;1.23;1.20;;;27.00;79.40;;;;;;5271580;28;20419;-48
2023/08/22 11:06:19;;;;;;;4.43;1.77;;;26.80;78.40;;;;;;5268753;28;20943;-46
2023/08/22 11:08:50;;;;;;;1.40;1.40;;;26.70;78.60;;;;;;5267338;28;20473;-46
2023/08/22 11:11:22;;;;;;;6.00;1.83;;;26.70;79.30;;;;;;5266026;28;20465;-46
2023/08/22 11:13:52;;;;;;;1.63;1.53;;;26.70;78.60;;;;;;5272949;28;20436;-45
2023/08/22 11:16:24;;;;;;;3.80;1.80;;;26.70;78.10;;;;;;5271729;28;20438;-47
2023/08/22 11:18:55;;;;;;;4.50;1.80;;;26.60;78.30;;;;;;5271909;28;20642;-47
2023/08/22 11:21:26;;;;;;;5.27;1.53;;;26.70;78.10;;;;;;5268648;28;20460;-45
2023/08/22 11:23:57;;;;;;;3.17;2.03;;;26.70;77.50;;;;;;5273571;28;20188;-46
2023/08/22 11:26:28;;;;;;;2.37;1.90;;;26.30;76.90;;;;;;5267005;28;20676;-47
2023/08/22 11:29:04;;;;;;;3.03;1.33;;;26.30;77.90;;;;;;5266750;28;20447;-47
2023/08/22 11:31:37;;;;;;;3.30;1.63;;;26.30;77.90;;;;;;5270230;28;20209;-47
2023/08/22 11:34:08;;;;;;;9.10;2.30;;;26.60;76.90;;;;;;5268426;28;20473;-46
2023/08/22 11:36:39;;;;;;;2.00;1.10;;;26.60;74.60;;;;;;5267925;28;20550;-46
2023/08/22 11:39:10;;;;;;;2.83;1.40;;;26.80;75.10;;;;;;5264615;28;20178;-46
2023/08/22 11:41:41;;;;;;;1.40;1.30;;;26.80;70.40;;;;;;5269749;28;20446;-47
2023/08/22 11:44:15;;;;;;;2.00;1.73;;;26.60;73.20;;;;;;5267653;28;20435;-45
2023/08/22 11:46:49;;;;;;;3.63;2.10;;;26.60;73.20;;;;;;5267489;28;20196;-45
2023/08/22 11:49:20;;;;;;;1.80;1.40;;;26.10;73.50;;;;;;5267650;28;20442;-46
2023/08/22 11:51:54;;;;;;;1.07;1.03;;;25.80;72.80;;;;;;5269203;28;20486;-46
2023/08/22 11:54:25;;;;;;;3.17;1.50;;;25.50;74.30;;;;;;5267143;28;20444;-46
2023/08/22 11:57:00;;;;;;;1.40;1.10;;;25.60;75.10;;;;;;5270457;28;20447;-47
2023/08/22 11:59:31;;;;;;;1.40;1.10;;;25.70;73.90;;;;;;5266023;28;20426;-46
2023/08/22 12:02:01;;;;;;;3.93;1.30;;;25.80;72.70;;;;;;5269592;28;20463;-47
2023/08/22 12:04:45;;;;;;;1.53;1.13;;;25.80;72.00;;;;;;5266181;28;20178;-47
2023/08/22 12:07:16;;;;;;;2.23;2.03;;;26.10;72.00;;;;;;5265437;28;20178;-46
2023/08/22 12:10:06;;;;;;;1.67;1.40;;;26.40;70.90;;;;;;5266464;28;20924;-46
2023/08/22 12:12:37;;;;;;;1.60;1.37;;;26.60;70.20;;;;;;5263917;28;20229;-46
2023/08/22 12:15:08;;;;;;;4.33;1.83;;;27.00;69.10;;;;;;5267228;28;20446;-47
2023/08/22 12:17:39;;;;;;;6.13;1.67;;;27.10;67.00;;;;;;5263513;28;20669;-47
2023/08/22 12:20:10;;;;;;;2.40;1.77;;;27.10;67.40;;;;;;5266093;28;20182;-48
2023/08/22 12:22:40;;;;;;;8.60;1.40;;;27.30;66.90;;;;;;5243557;28;20664;-46
2023/08/22 12:25:11;;;;;;;1.80;1.70;;;27.40;66.70;;;;;;5246289;28;20642;-46
2023/08/22 12:27:42;;;;;;;4.97;1.10;;;27.40;66.20;;;;;;5266455;28;20542;-46
2023/08/22 12:30:13;;;;;;;1.63;1.50;;;27.30;65.80;;;;;;5263051;28;20190;-46
2023/08/22 12:32:45;;;;;;;3.33;1.27;;;27.20;65.50;;;;;;5264179;28;20204;-47
2023/08/22 12:35:15;;;;;;;1.57;1.47;;;26.80;64.50;;;;;;5266507;28;20205;-51
2023/08/22 12:37:46;;;;;;;2.33;1.73;;;26.60;65.90;;;;;;5265922;28;20853;-47
2023/08/22 12:40:17;;;;;;;2.67;1.77;;;26.60;65.40;;;;;;5264484;28;20185;-47
2023/08/22 12:42:47;;;;;;;6.43;2.70;;;26.40;64.70;;;;;;5264213;28;20250;-46
2023/08/22 12:45:18;;;;;;;1.70;1.60;;;26.30;63.00;;;;;;5265241;28;20189;-46
2023/08/22 12:47:49;;;;;;;3.30;1.60;;;26.10;60.60;;;;;;5265565;28;20181;-47
2023/08/22 12:50:20;;;;;;;4.30;2.00;;;25.90;63.40;;;;;;5267186;28;20951;-46
2023/08/22 12:52:51;;;;;;;1.70;1.43;;;25.90;64.40;;;;;;5268096;28;20197;-46
2023/08/22 12:55:22;;;;;;;2.90;2.57;;;26.00;64.80;;;;;;5267344;28;20261;-47
2023/08/22 12:57:53;;;;;;;3.73;3.33;;;26.30;65.40;;;;;;5270288;28;20197;-47
2023/08/22 13:00:24;;;;;;;2.30;1.80;;;26.40;63.50;;;;;;5267028;28;20451;-46
2023/08/22 13:02:55;;;;;;;3.90;2.90;;;26.40;63.20;;;;;;5272316;28;20266;-46
2023/08/22 13:05:26;;;;;;;1.83;1.40;;;26.60;63.30;;;;;;5267191;28;20189;-47
2023/08/22 13:07:58;;;;;;;3.83;1.93;;;26.60;63.90;;;;;;5268645;28;20439;-46
2023/08/22 13:10:28;;;;;;;2.20;1.90;;;26.80;64.30;;;;;;5269419;28;20434;-47